createdAt,value
2022-09-23T00:00:11.128Z,91.12
2022-09-23T00:02:48.841Z,91.48
2022-09-23T00:05:21.513Z,91.33
2022-09-23T00:07:55.190Z,91.57
2022-09-23T00:10:31.163Z,91.55
2022-09-23T00:13:04.560Z,91.24
2022-09-23T00:15:40.083Z,91.19
2022-09-23T00:18:12.508Z,91.23
2022-09-23T00:20:45.211Z,91.42
2022-09-23T00:23:17.704Z,91.17
2022-09-23T00:26:01.475Z,91.35
2022-09-23T00:28:34.976Z,91.74
2022-09-23T00:31:13.527Z,91.13
2022-09-23T00:33:46.282Z,91.71
2022-09-23T00:36:18.697Z,91.68
2022-09-23T00:38:51.137Z,91.67
2022-09-23T00:41:24.783Z,91.66
2022-09-23T00:43:59.654Z,91.65
2022-09-23T00:46:43.544Z,91.72
2022-09-23T00:49:26.687Z,91.91
2022-09-23T00:52:06.657Z,91.92
2022-09-23T00:54:39.181Z,91.64
2022-09-23T00:57:12.962Z,92.08
2022-09-23T00:59:46.244Z,91.89
2022-09-23T01:02:21.137Z,91.65
2022-09-23T01:04:54.598Z,92.08
2022-09-23T01:07:27.349Z,91.40
2022-09-23T01:10:01.078Z,91.92
2022-09-23T01:13:07.858Z,92.03
2022-09-23T01:15:53.471Z,91.66
2022-09-23T01:18:44.066Z,91.57
2022-09-23T01:21:28.510Z,91.56
2022-09-23T01:24:07.844Z,91.53
2022-09-23T01:27:02.325Z,91.12
2022-09-23T01:29:37.507Z,91.19
2022-09-23T01:32:20.305Z,90.94
2022-09-23T01:35:18.904Z,90.94
2022-09-23T01:37:56.068Z,91.46
2022-09-23T01:40:56.918Z,91.09
2022-09-23T01:43:58.127Z,91.05
2022-09-23T01:46:38.095Z,91.68
2022-09-23T01:49:18.451Z,91.75
2022-09-23T01:52:18.389Z,91.73
2022-09-23T01:55:16.261Z,91.48
2022-09-23T01:57:57.307Z,92.03
2022-09-23T02:00:34.959Z,91.64
2022-09-23T02:03:13.523Z,91.44
2022-09-23T02:05:51.390Z,91.83
2022-09-23T02:08:34.961Z,91.33
2022-09-23T02:11:10.201Z,91.54
2022-09-23T02:14:01.698Z,91.49
2022-09-23T02:16:36.091Z,91.45
2022-09-23T02:19:22.298Z,91.75
2022-09-23T02:22:07.041Z,91.08
2022-09-23T02:24:39.962Z,91.47
2022-09-23T02:27:24.087Z,90.92
2022-09-23T02:30:05.837Z,90.92
2022-09-23T02:32:45.288Z,90.61
2022-09-23T02:35:26.690Z,90.62
2022-09-23T02:38:11.021Z,90.85
2022-09-23T02:40:57.445Z,90.91
2022-09-23T02:44:01.121Z,90.95
2022-09-23T02:46:34.411Z,91.23
2022-09-23T02:49:23.423Z,91.00
2022-09-23T02:51:56.697Z,90.91
2022-09-23T02:54:29.241Z,90.90
2022-09-23T02:57:06.041Z,90.66
2022-09-23T02:59:38.799Z,91.09
2022-09-23T03:02:26.554Z,91.00
2022-09-23T03:05:11.326Z,91.00
2022-09-23T03:08:15.286Z,91.29
2022-09-23T03:11:08.733Z,91.13
2022-09-23T03:13:54.065Z,90.85
2022-09-23T03:16:43.568Z,90.96
2022-09-23T03:19:42.289Z,91.27
2022-09-23T03:22:33.902Z,91.22
2022-09-23T03:25:12.073Z,91.61
2022-09-23T03:27:45.549Z,91.47
2022-09-23T03:30:18.432Z,91.11
2022-09-23T03:32:52.117Z,91.70
2022-09-23T03:35:29.230Z,91.37
2022-09-23T03:38:12.135Z,91.69
2022-09-23T03:40:50.966Z,91.41
2022-09-23T03:43:23.676Z,91.18
2022-09-23T03:45:57.370Z,91.29
2022-09-23T03:48:29.930Z,91.23
2022-09-23T03:51:19.198Z,91.36
2022-09-23T03:53:51.620Z,90.92
2022-09-23T03:56:24.110Z,91.05
2022-09-23T03:58:56.497Z,90.50
2022-09-23T04:01:29.743Z,90.47
2022-09-23T04:04:02.225Z,90.50
2022-09-23T04:06:35.588Z,90.42
2022-09-23T04:09:08.629Z,90.58
2022-09-23T04:11:41.204Z,90.54
2022-09-23T04:14:15.035Z,90.44
2022-09-23T04:16:48.993Z,90.46
2022-09-23T04:19:21.798Z,90.45
2022-09-23T04:21:54.252Z,90.53
2022-09-23T04:24:26.720Z,90.20
2022-09-23T04:26:59.800Z,90.77
2022-09-23T04:29:32.186Z,90.73
2022-09-23T04:32:05.890Z,90.60
2022-09-23T04:34:38.402Z,90.35
2022-09-23T04:37:10.787Z,90.73
2022-09-23T04:39:43.309Z,90.73
2022-09-23T04:42:15.737Z,90.48
2022-09-23T04:44:48.143Z,90.54
2022-09-23T04:47:20.633Z,90.44
2022-09-23T04:49:55.578Z,90.77
2022-09-23T04:52:31.513Z,90.63
2022-09-23T04:55:07.962Z,90.37
2022-09-23T04:57:43.346Z,90.50
2022-09-23T05:00:15.938Z,90.51
2022-09-23T05:02:49.586Z,90.25
2022-09-23T05:05:23.624Z,89.97
2022-09-23T05:07:56.527Z,90.00
2022-09-23T05:10:28.986Z,90.11
2022-09-23T05:13:01.393Z,89.94
2022-09-23T05:15:33.788Z,89.73
2022-09-23T05:18:06.360Z,89.62
2022-09-23T05:20:39.405Z,89.75
2022-09-23T05:23:12.399Z,89.42
2022-09-23T05:25:45.348Z,89.58
2022-09-23T05:28:19.979Z,89.64
2022-09-23T05:30:52.453Z,89.31
2022-09-23T05:33:24.860Z,89.14
2022-09-23T05:35:57.337Z,89.25
2022-09-23T05:38:30.416Z,88.98
2022-09-23T05:41:05.456Z,88.67
2022-09-23T05:43:38.112Z,88.92
2022-09-23T05:46:13.052Z,88.41
2022-09-23T05:48:47.265Z,88.35
2022-09-23T05:51:22.598Z,87.61
2022-09-23T05:53:58.382Z,88.03
2022-09-23T05:56:32.875Z,86.92
2022-09-23T05:59:05.946Z,87.34
2022-09-23T06:01:39.439Z,86.78
2022-09-23T06:04:13.295Z,86.88
2022-09-23T06:06:45.751Z,86.52
2022-09-23T06:09:18.242Z,86.04
2022-09-23T06:11:50.887Z,85.59
2022-09-23T06:14:23.526Z,85.30
2022-09-23T06:16:55.990Z,85.70
2022-09-23T06:19:28.408Z,85.26
2022-09-23T06:22:00.811Z,84.95
2022-09-23T06:24:33.306Z,84.31
2022-09-23T06:27:06.654Z,84.32
2022-09-23T06:29:39.112Z,83.95
2022-09-23T06:32:11.650Z,83.80
2022-09-23T06:34:51.436Z,83.44
2022-09-23T06:37:25.312Z,83.22
2022-09-23T06:39:58.042Z,83.03
2022-09-23T06:42:30.649Z,82.54
2022-09-23T06:45:03.338Z,82.28
2022-09-23T06:47:36.585Z,82.02
2022-09-23T06:50:10.707Z,81.69
2022-09-23T06:52:50.904Z,81.13
2022-09-23T06:55:24.826Z,80.71
2022-09-23T06:58:00.525Z,81.10
2022-09-23T07:00:32.966Z,80.43
2022-09-23T07:03:09.992Z,79.74
2022-09-23T07:05:42.809Z,79.47
2022-09-23T07:08:15.739Z,79.02
2022-09-23T07:10:55.713Z,78.71
2022-09-23T07:13:28.573Z,78.83
2022-09-23T07:16:02.271Z,78.77
2022-09-23T07:18:37.372Z,78.13
2022-09-23T07:21:16.092Z,78.12
2022-09-23T07:23:53.634Z,77.54
2022-09-23T07:26:26.561Z,77.64
2022-09-23T07:29:04.889Z,76.61
2022-09-23T07:31:40.005Z,77.29
2022-09-23T07:34:12.733Z,75.15
2022-09-23T07:36:45.260Z,75.43
2022-09-23T07:39:17.791Z,75.50
2022-09-23T07:41:51.866Z,74.65
2022-09-23T07:44:25.575Z,74.15
2022-09-23T07:46:58.888Z,74.15
2022-09-23T07:49:31.447Z,72.53
2022-09-23T07:52:05.055Z,73.13
2022-09-23T07:54:37.683Z,71.53
2022-09-23T07:57:10.083Z,72.49
2022-09-23T07:59:43.207Z,71.08
2022-09-23T08:02:16.445Z,70.43
2022-09-23T08:04:49.569Z,71.66
2022-09-23T08:07:22.037Z,70.70
2022-09-23T08:09:54.590Z,71.12
2022-09-23T08:12:29.303Z,69.47
2022-09-23T08:15:02.509Z,69.69
2022-09-23T08:17:34.934Z,71.30
2022-09-23T08:20:08.005Z,69.66
2022-09-23T08:22:40.698Z,68.49
2022-09-23T08:25:13.728Z,69.22
2022-09-23T08:27:46.471Z,68.57
2022-09-23T08:30:18.946Z,68.58
2022-09-23T08:32:51.823Z,67.54
2022-09-23T08:35:24.523Z,67.86
2022-09-23T08:37:57.874Z,67.27
2022-09-23T08:40:30.450Z,66.76
2022-09-23T08:43:06.928Z,66.58
2022-09-23T08:45:42.078Z,66.51
2022-09-23T08:48:17.377Z,66.97
2022-09-23T08:50:55.579Z,66.43
2022-09-23T08:53:35.607Z,66.54
2022-09-23T08:56:17.451Z,65.88
2022-09-23T08:59:16.112Z,65.29
2022-09-23T09:01:53.605Z,65.09
2022-09-23T09:04:28.392Z,64.28
2022-09-23T09:07:31.718Z,63.65
2022-09-23T09:09:59.281Z,63.89
2022-09-23T09:12:50.497Z,62.41
2022-09-23T09:15:28.914Z,61.34
2022-09-23T09:18:12.207Z,61.45
2022-09-23T09:20:47.611Z,60.56
2022-09-23T09:23:48.441Z,59.78
2022-09-23T09:26:29.239Z,60.20
2022-09-23T09:29:31.217Z,58.31
2022-09-23T09:32:48.652Z,57.68
2022-09-23T09:35:50.642Z,58.33
2022-09-23T09:38:23.483Z,58.91
2022-09-23T09:41:05.712Z,57.95
2022-09-23T09:43:44.075Z,57.47
2022-09-23T09:46:26.010Z,56.77
2022-09-23T09:49:02.920Z,55.81
2022-09-23T09:51:36.274Z,55.66
2022-09-23T09:54:22.189Z,56.50
2022-09-23T09:56:55.284Z,55.31
2022-09-23T09:59:28.939Z,54.89
2022-09-23T10:02:30.677Z,55.68
2022-09-23T10:05:07.550Z,54.96
2022-09-23T10:07:40.371Z,54.28
2022-09-23T10:10:33.669Z,53.24
2022-09-23T10:13:16.199Z,53.78
2022-09-23T10:15:48.712Z,52.76
2022-09-23T10:18:29.211Z,52.45
2022-09-23T10:21:14.542Z,53.65
2022-09-23T10:23:53.901Z,51.35
2022-09-23T10:26:38.991Z,51.73
2022-09-23T10:29:29.055Z,51.77
2022-09-23T10:32:26.948Z,49.97
2022-09-23T10:35:03.129Z,49.53
2022-09-23T10:37:40.933Z,50.38
2022-09-23T10:40:42.217Z,49.91
2022-09-23T10:43:56.355Z,49.67
2022-09-23T10:46:39.161Z,49.96
2022-09-23T10:49:36.600Z,49.94
2022-09-23T10:52:24.461Z,49.39
2022-09-23T10:55:28.022Z,48.65
2022-09-23T10:58:27.578Z,49.65
2022-09-23T11:01:06.334Z,49.01
2022-09-23T11:04:10.011Z,49.26
2022-09-23T11:06:49.364Z,48.74
2022-09-23T11:09:40.540Z,49.62
2022-09-23T11:12:53.163Z,49.07
2022-09-23T11:16:10.349Z,49.06
2022-09-23T11:19:03.321Z,48.79
2022-09-23T11:22:14.147Z,48.63
2022-09-23T11:25:00.374Z,47.63
2022-09-23T11:28:03.241Z,47.34
2022-09-23T11:31:04.321Z,47.57
2022-09-23T11:33:44.919Z,47.63
2022-09-23T11:36:37.903Z,47.33
2022-09-23T11:39:19.975Z,47.48
2022-09-23T11:41:55.849Z,47.92
2022-09-23T11:44:42.590Z,46.19
2022-09-23T11:47:22.016Z,47.22
2022-09-23T11:50:02.824Z,47.44
2022-09-23T11:52:43.115Z,47.13
2022-09-23T11:55:22.745Z,47.25
2022-09-23T11:58:21.998Z,46.35
2022-09-23T12:01:13.455Z,46.01
2022-09-23T12:04:14.026Z,45.87
2022-09-23T12:06:56.914Z,45.34
2022-09-23T12:09:58.245Z,46.20
2022-09-23T12:13:07.318Z,46.97
2022-09-23T12:16:28.776Z,45.88
2022-09-23T12:19:29.322Z,46.61
2022-09-23T12:22:27.152Z,46.59
2022-09-23T12:25:26.716Z,46.55
2022-09-23T12:28:06.669Z,46.31
2022-09-23T12:30:41.859Z,46.41
2022-09-23T12:33:22.556Z,47.42
2022-09-23T12:36:15.453Z,47.13
2022-09-23T12:38:54.644Z,47.71
2022-09-23T12:41:35.354Z,47.36
2022-09-23T12:44:08.335Z,47.95
2022-09-23T12:46:45.745Z,48.55
2022-09-23T12:49:27.370Z,48.28
2022-09-23T12:52:12.077Z,47.22
2022-09-23T12:54:47.055Z,47.51
2022-09-23T12:57:34.929Z,47.33
2022-09-23T13:00:11.350Z,47.50
2022-09-23T13:03:13.838Z,48.71
2022-09-23T13:06:18.990Z,49.11
2022-09-23T13:08:52.875Z,49.10
2022-09-23T13:11:29.709Z,49.56
2022-09-23T13:14:05.322Z,48.92
2022-09-23T13:16:46.218Z,49.54
2022-09-23T13:19:27.860Z,49.26
2022-09-23T13:22:11.143Z,48.85
2022-09-23T13:24:44.457Z,49.09
2022-09-23T13:27:22.312Z,48.31
2022-09-23T13:30:25.694Z,48.06
2022-09-23T13:33:16.352Z,47.96
2022-09-23T13:35:51.286Z,48.45
2022-09-23T13:38:26.430Z,48.42
2022-09-23T13:41:01.793Z,48.96
2022-09-23T13:43:45.156Z,49.41
2022-09-23T13:46:23.943Z,49.54
2022-09-23T13:48:56.962Z,50.02
2022-09-23T13:51:34.856Z,50.47
2022-09-23T13:54:45.706Z,51.59
2022-09-23T13:57:36.282Z,51.81
2022-09-23T14:00:21.697Z,52.63
2022-09-23T14:02:54.142Z,53.12
2022-09-23T14:05:35.362Z,53.46
2022-09-23T14:08:07.969Z,54.03
2022-09-23T14:10:44.918Z,53.82
2022-09-23T14:13:25.958Z,54.82
2022-09-23T14:16:01.815Z,54.32
2022-09-23T14:18:54.629Z,55.01
2022-09-23T14:21:40.276Z,54.80
2022-09-23T14:24:29.725Z,55.22
2022-09-23T14:27:08.377Z,54.91
2022-09-23T14:29:44.234Z,54.99
2022-09-23T14:32:24.124Z,55.48
2022-09-23T14:34:59.717Z,55.44
2022-09-23T14:38:00.865Z,55.86
2022-09-23T14:40:35.229Z,56.11
2022-09-23T14:43:16.744Z,55.88
2022-09-23T14:45:56.075Z,56.04
2022-09-23T14:48:33.092Z,56.62
2022-09-23T14:51:12.024Z,57.03
2022-09-23T14:53:49.163Z,57.33
2022-09-23T14:56:22.739Z,57.91
2022-09-23T14:59:00.230Z,58.00
2022-09-23T15:01:39.402Z,58.92
2022-09-23T15:04:16.948Z,59.17
2022-09-23T15:06:52.419Z,59.69
2022-09-23T15:09:32.960Z,59.48
2022-09-23T15:12:11.455Z,60.76
2022-09-23T15:14:49.734Z,61.75
2022-09-23T15:17:30.261Z,61.84
2022-09-23T15:20:06.727Z,63.11
2022-09-23T15:22:46.456Z,62.96
2022-09-23T15:25:21.453Z,63.86
2022-09-23T15:28:17.524Z,64.15
2022-09-23T15:30:50.479Z,62.51
2022-09-23T15:33:28.178Z,64.72
2022-09-23T15:36:01.242Z,64.47
2022-09-23T15:38:34.066Z,64.52
2022-09-23T15:41:07.165Z,64.49
2022-09-23T15:43:42.092Z,64.37
2022-09-23T15:46:19.407Z,64.14
2022-09-23T15:49:03.289Z,65.20
2022-09-23T15:51:37.505Z,64.90
2022-09-23T15:54:12.748Z,65.05
2022-09-23T15:56:45.810Z,64.69
2022-09-23T15:59:19.174Z,64.42
2022-09-23T16:01:53.338Z,65.12
2022-09-23T16:04:26.278Z,65.07
2022-09-23T16:06:59.188Z,65.01
2022-09-23T16:09:31.777Z,65.14
2022-09-23T16:12:04.877Z,65.50
2022-09-23T16:14:37.570Z,65.68
2022-09-23T16:17:14.039Z,65.58
2022-09-23T16:19:46.495Z,65.66
2022-09-23T16:22:19.025Z,66.60
2022-09-23T16:24:51.543Z,66.66
2022-09-23T16:27:24.090Z,67.04
2022-09-23T16:29:56.655Z,66.82
2022-09-23T16:32:29.300Z,67.40
2022-09-23T16:35:01.884Z,67.40
2022-09-23T16:37:35.158Z,68.23
2022-09-23T16:40:09.738Z,67.87
2022-09-23T16:42:42.620Z,67.89
2022-09-23T16:45:17.894Z,68.79
2022-09-23T16:47:51.817Z,69.29
2022-09-23T16:50:24.291Z,69.44
2022-09-23T16:52:56.659Z,69.90
2022-09-23T16:55:29.095Z,69.90
2022-09-23T16:58:01.462Z,69.96
2022-09-23T17:00:52.820Z,70.33
2022-09-23T17:03:40.889Z,70.30
2022-09-23T17:06:14.434Z,71.01
2022-09-23T17:08:50.979Z,70.99
2022-09-23T17:11:23.358Z,71.52
2022-09-23T17:13:55.850Z,71.43
2022-09-23T17:16:31.476Z,71.67
2022-09-23T17:19:08.238Z,71.36
2022-09-23T17:21:40.694Z,72.16
2022-09-23T17:24:13.171Z,72.45
2022-09-23T17:26:49.359Z,72.48
2022-09-23T17:29:26.777Z,73.01
2022-09-23T17:31:59.298Z,72.93
2022-09-23T17:34:33.350Z,72.87
2022-09-23T17:37:05.779Z,73.23
2022-09-23T17:39:38.224Z,73.08
2022-09-23T17:42:10.653Z,73.77
2022-09-23T17:44:43.115Z,73.98
2022-09-23T17:47:15.574Z,73.80
2022-09-23T17:49:49.833Z,74.35
2022-09-23T17:52:22.230Z,74.65
2022-09-23T17:54:55.018Z,75.40
2022-09-23T17:57:27.415Z,74.80
2022-09-23T17:59:59.827Z,74.65
2022-09-23T18:02:32.251Z,74.65
2022-09-23T18:05:05.075Z,74.78
2022-09-23T18:07:37.434Z,75.08
2022-09-23T18:10:10.061Z,75.42
2022-09-23T18:12:42.471Z,75.24
2022-09-23T18:15:19.371Z,75.86
2022-09-23T18:17:52.521Z,75.97
2022-09-23T18:20:25.070Z,77.08
2022-09-23T18:22:57.589Z,77.10
2022-09-23T18:25:39.459Z,77.44
2022-09-23T18:28:12.427Z,77.40
2022-09-23T18:30:59.942Z,77.67
2022-09-23T18:33:32.395Z,78.53
2022-09-23T18:36:06.329Z,78.22
2022-09-23T18:38:39.937Z,79.14
2022-09-23T18:41:12.695Z,79.47
2022-09-23T18:43:48.519Z,80.65
2022-09-23T18:46:26.532Z,80.75
2022-09-23T18:49:17.703Z,81.38
2022-09-23T18:51:53.631Z,81.82
2022-09-23T18:54:28.217Z,82.38
2022-09-23T18:57:01.395Z,82.47
2022-09-23T18:59:34.734Z,82.74
2022-09-23T19:02:09.005Z,83.33
2022-09-23T19:04:41.639Z,84.07
2022-09-23T19:07:15.471Z,84.17
2022-09-23T19:09:48.211Z,84.67
2022-09-23T19:12:22.791Z,85.08
2022-09-23T19:14:55.724Z,85.67
2022-09-23T19:17:29.752Z,85.65
2022-09-23T19:20:02.583Z,86.47
2022-09-23T19:22:35.676Z,86.37
2022-09-23T19:25:08.821Z,86.63
2022-09-23T19:27:41.262Z,86.73
2022-09-23T19:30:13.882Z,86.86
2022-09-23T19:32:46.649Z,87.13
2022-09-23T19:35:19.146Z,87.50
2022-09-23T19:37:51.660Z,87.42
2022-09-23T19:40:24.209Z,87.70
2022-09-23T19:42:56.751Z,87.90
2022-09-23T19:45:30.179Z,88.10
2022-09-23T19:48:05.063Z,87.91
2022-09-23T19:50:41.565Z,88.31
2022-09-23T19:53:14.543Z,88.35
2022-09-23T19:55:46.950Z,88.59
2022-09-23T19:58:19.858Z,88.88
2022-09-23T20:00:52.516Z,88.58
2022-09-23T20:03:25.972Z,89.03
2022-09-23T20:05:59.523Z,88.93
2022-09-23T20:08:35.652Z,88.98
2022-09-23T20:11:16.385Z,88.82
2022-09-23T20:13:52.486Z,88.75
2022-09-23T20:16:25.929Z,89.10
2022-09-23T20:19:04.251Z,89.37
2022-09-23T20:21:36.730Z,89.21
2022-09-23T20:24:11.816Z,89.83
2022-09-23T20:27:02.921Z,89.60
2022-09-23T20:29:35.927Z,90.03
2022-09-23T20:32:09.313Z,89.95
2022-09-23T20:34:46.490Z,90.15
2022-09-23T20:37:20.962Z,89.90
2022-09-23T20:39:53.394Z,89.82
2022-09-23T20:42:25.744Z,89.94
2022-09-23T20:44:58.367Z,89.57
2022-09-23T20:47:30.948Z,89.48
2022-09-23T20:50:03.591Z,89.04
2022-09-23T20:52:36.256Z,88.93
2022-09-23T20:55:08.841Z,88.15
2022-09-23T20:57:41.508Z,88.19
2022-09-23T21:00:14.573Z,87.98
2022-09-23T21:02:47.013Z,88.14
2022-09-23T21:05:19.477Z,87.93
2022-09-23T21:07:52.124Z,88.37
2022-09-23T21:10:24.571Z,88.33
2022-09-23T21:12:56.952Z,88.11
2022-09-23T21:15:29.876Z,88.60
2022-09-23T21:18:02.245Z,88.76
2022-09-23T21:20:34.732Z,88.87
2022-09-23T21:23:07.962Z,88.84
2022-09-23T21:25:40.462Z,89.28
2022-09-23T21:28:13.378Z,89.32
2022-09-23T21:30:49.783Z,89.42
2022-09-23T21:33:24.248Z,89.44
2022-09-23T21:35:58.502Z,89.74
2022-09-23T21:38:34.098Z,89.94
2022-09-23T21:41:08.600Z,90.02
2022-09-23T21:43:41.359Z,89.80
2022-09-23T21:46:19.943Z,90.00
2022-09-23T21:48:55.049Z,90.32
2022-09-23T21:51:40.295Z,90.56
2022-09-23T21:54:15.651Z,90.42
2022-09-23T21:56:48.103Z,90.57
2022-09-23T21:59:20.491Z,90.83
2022-09-23T22:01:54.435Z,91.27
2022-09-23T22:04:26.941Z,91.13
2022-09-23T22:07:00.137Z,91.25
2022-09-23T22:09:32.538Z,91.70
2022-09-23T22:12:05.031Z,91.72
2022-09-23T22:14:38.806Z,91.80
2022-09-23T22:17:12.158Z,91.94
2022-09-23T22:19:47.259Z,91.84
2022-09-23T22:22:19.913Z,92.37
2022-09-23T22:24:52.334Z,91.71
2022-09-23T22:27:27.189Z,91.98
2022-09-23T22:30:17.904Z,92.18
2022-09-23T22:32:54.919Z,91.95
2022-09-23T22:35:27.653Z,91.79
2022-09-23T22:38:01.026Z,91.70
2022-09-23T22:40:35.902Z,91.72
2022-09-23T22:43:08.466Z,91.39
2022-09-23T22:45:49.498Z,91.49
2022-09-23T22:48:21.929Z,91.63
2022-09-23T22:50:55.215Z,91.48
2022-09-23T22:53:28.313Z,91.64
2022-09-23T22:56:01.356Z,91.95
2022-09-23T22:58:33.774Z,91.94
2022-09-23T23:01:06.266Z,91.91
2022-09-23T23:03:40.298Z,92.29
2022-09-23T23:06:12.873Z,92.15
2022-09-23T23:08:45.561Z,92.13
2022-09-23T23:11:17.993Z,92.37
2022-09-23T23:13:50.505Z,91.96
2022-09-23T23:16:25.294Z,91.66
2022-09-23T23:18:57.732Z,91.64
2022-09-23T23:21:30.742Z,91.90
2022-09-23T23:24:04.491Z,91.84
2022-09-23T23:26:36.941Z,91.61
2022-09-23T23:29:11.702Z,91.49
2022-09-23T23:31:44.795Z,91.49
2022-09-23T23:34:19.714Z,91.51
2022-09-23T23:36:55.890Z,91.79
2022-09-23T23:39:28.351Z,91.49
2022-09-23T23:42:00.752Z,91.63
2022-09-23T23:44:34.336Z,91.89
2022-09-23T23:47:06.876Z,91.31
2022-09-23T23:49:39.348Z,91.47
2022-09-23T23:52:12.269Z,91.53
2022-09-23T23:54:44.681Z,91.55
2022-09-23T23:57:17.092Z,91.77
2022-09-23T23:59:49.467Z,92.08
